createdAt,value
2017-07-21T00:00:48.334Z,99.90
2017-07-21T00:03:14.293Z,99.90
2017-07-21T00:05:40.256Z,99.90
2017-07-21T00:08:06.278Z,99.90
2017-07-21T00:10:32.226Z,99.90
2017-07-21T00:12:58.179Z,99.90
2017-07-21T00:15:24.898Z,99.90
2017-07-21T00:17:51.591Z,99.90
2017-07-21T00:20:17.573Z,99.90
2017-07-21T00:22:43.513Z,99.90
2017-07-21T00:25:09.480Z,99.90
2017-07-21T00:27:35.510Z,99.90
2017-07-21T00:30:01.465Z,99.90
2017-07-21T00:32:27.416Z,99.90
2017-07-21T00:34:53.425Z,99.90
2017-07-21T00:37:19.374Z,99.90
2017-07-21T00:39:45.331Z,99.90
2017-07-21T00:42:11.309Z,99.90
2017-07-21T00:44:37.261Z,99.90
2017-07-21T00:47:03.258Z,99.90
2017-07-21T00:49:29.207Z,99.90
2017-07-21T00:51:55.170Z,99.90
2017-07-21T00:54:21.145Z,99.90
2017-07-21T00:56:47.093Z,99.90
2017-07-21T00:59:13.080Z,99.90
2017-07-21T01:01:39.021Z,99.90
2017-07-21T01:04:04.983Z,99.90
2017-07-21T01:06:30.961Z,99.90
2017-07-21T01:08:56.938Z,99.90
2017-07-21T01:11:22.946Z,99.90
2017-07-21T01:13:48.898Z,99.90
2017-07-21T01:16:15.583Z,99.90
2017-07-21T01:18:41.564Z,99.90
2017-07-21T01:21:07.510Z,99.90
2017-07-21T01:23:33.465Z,99.90
2017-07-21T01:25:59.448Z,99.90
2017-07-21T01:28:26.138Z,99.90
2017-07-21T01:30:52.119Z,99.90
2017-07-21T01:33:18.057Z,99.90
2017-07-21T01:35:44.013Z,99.90
2017-07-21T01:38:10.733Z,99.90
2017-07-21T01:40:37.422Z,99.90
2017-07-21T01:43:03.373Z,99.90
2017-07-21T01:45:29.733Z,99.90
2017-07-21T01:47:55.670Z,99.90
2017-07-21T01:50:21.622Z,99.90
2017-07-21T01:52:47.599Z,99.90
2017-07-21T01:55:13.546Z,99.90
2017-07-21T01:57:40.272Z,99.90
2017-07-21T02:00:06.200Z,99.90
2017-07-21T02:02:32.168Z,99.90
2017-07-21T02:04:58.105Z,99.90
2017-07-21T02:07:24.806Z,99.90
2017-07-21T02:09:50.819Z,99.90
2017-07-21T02:12:16.791Z,99.90
2017-07-21T02:14:42.730Z,99.90
2017-07-21T02:17:08.713Z,99.90
2017-07-21T02:19:34.697Z,99.90
2017-07-21T02:22:00.676Z,99.90
2017-07-21T02:24:26.617Z,99.90
2017-07-21T02:26:52.601Z,99.90
2017-07-21T02:29:18.536Z,99.90
2017-07-21T02:31:44.498Z,99.90
2017-07-21T02:34:10.486Z,99.90
2017-07-21T02:36:36.421Z,99.90
2017-07-21T02:39:03.106Z,99.90
2017-07-21T02:41:29.129Z,99.90
2017-07-21T02:43:55.077Z,99.90
2017-07-21T02:46:21.760Z,99.90
2017-07-21T02:48:47.729Z,99.90
2017-07-21T02:51:13.674Z,99.90
2017-07-21T02:53:39.670Z,99.90
2017-07-21T02:56:05.609Z,99.90
2017-07-21T02:58:31.553Z,99.90
2017-07-21T03:00:58.405Z,99.90
2017-07-21T03:03:24.349Z,99.90
2017-07-21T03:05:50.289Z,99.90
2017-07-21T03:08:17.006Z,99.90
2017-07-21T03:10:43.733Z,99.90
2017-07-21T03:13:10.440Z,99.90
2017-07-21T03:15:36.377Z,99.90
2017-07-21T03:18:03.093Z,99.90
2017-07-21T03:20:29.781Z,99.90
2017-07-21T03:23:08.176Z,99.90
2017-07-21T03:25:34.250Z,99.90
2017-07-21T03:28:00.954Z,99.90
2017-07-21T03:30:26.930Z,99.90
2017-07-21T03:32:52.917Z,99.90
2017-07-21T03:35:18.858Z,99.90
2017-07-21T03:37:44.845Z,99.90
2017-07-21T03:40:10.821Z,99.90
2017-07-21T03:42:36.765Z,99.90
2017-07-21T03:45:02.708Z,99.90
2017-07-21T03:47:28.681Z,99.90
2017-07-21T03:49:54.638Z,99.90
2017-07-21T03:52:20.653Z,99.90
2017-07-21T03:54:46.590Z,99.90
2017-07-21T03:57:12.524Z,99.90
2017-07-21T03:59:38.492Z,99.90
2017-07-21T04:02:05.181Z,99.90
2017-07-21T04:04:31.577Z,99.90
2017-07-21T04:06:57.548Z,99.90
2017-07-21T04:09:23.497Z,99.90
2017-07-21T04:11:49.464Z,99.90
2017-07-21T04:14:16.145Z,99.90
2017-07-21T04:16:42.130Z,99.90
2017-07-21T04:19:08.073Z,99.90
2017-07-21T04:21:34.013Z,99.90
2017-07-21T04:24:00.033Z,99.90
2017-07-21T04:26:26.008Z,99.90
2017-07-21T04:28:51.978Z,99.90
2017-07-21T04:31:17.916Z,99.90
2017-07-21T04:33:43.881Z,99.90
2017-07-21T04:36:09.856Z,99.90
2017-07-21T04:38:36.541Z,99.90
2017-07-21T04:41:02.490Z,99.90
2017-07-21T04:43:29.226Z,99.90
2017-07-21T04:45:55.167Z,99.90
2017-07-21T04:48:21.153Z,99.90
2017-07-21T04:50:47.089Z,99.90
2017-07-21T04:53:13.024Z,99.90
2017-07-21T04:55:39.001Z,99.90
2017-07-21T04:58:04.936Z,99.90
2017-07-21T05:00:30.888Z,99.90
2017-07-21T05:02:56.897Z,99.90
2017-07-21T05:05:22.832Z,99.90
2017-07-21T05:07:48.768Z,99.90
2017-07-21T05:10:14.737Z,99.90
2017-07-21T05:12:40.677Z,99.90
2017-07-21T05:15:06.654Z,99.90
2017-07-21T05:17:32.628Z,99.90
2017-07-21T05:19:59.317Z,99.90
2017-07-21T05:22:25.298Z,99.90
2017-07-21T05:24:51.237Z,99.90
2017-07-21T05:27:17.197Z,99.90
2017-07-21T05:29:43.168Z,99.90
2017-07-21T05:32:09.112Z,99.90
2017-07-21T05:34:35.061Z,99.90
2017-07-21T05:37:01.032Z,99.90
2017-07-21T05:39:27.050Z,99.90
2017-07-21T05:41:53.029Z,99.90
2017-07-21T05:44:19.708Z,99.90
2017-07-21T05:46:45.694Z,99.90
2017-07-21T05:49:11.677Z,99.90
2017-07-21T05:51:37.638Z,99.90
2017-07-21T05:54:03.614Z,99.90
2017-07-21T05:56:29.599Z,99.90
2017-07-21T05:58:56.290Z,99.90
2017-07-21T06:01:22.286Z,99.90
2017-07-21T06:03:48.230Z,99.90
2017-07-21T06:06:14.201Z,99.90
2017-07-21T06:08:40.185Z,99.90
2017-07-21T06:11:06.900Z,99.90
2017-07-21T06:13:32.850Z,99.90
2017-07-21T06:15:58.819Z,99.90
2017-07-21T06:18:24.797Z,99.90
2017-07-21T06:20:50.744Z,99.90
2017-07-21T06:23:17.430Z,99.90
2017-07-21T06:25:43.412Z,99.90
2017-07-21T06:28:09.385Z,99.90
2017-07-21T06:30:35.341Z,99.90
2017-07-21T06:33:01.321Z,99.90
2017-07-21T06:35:27.265Z,99.90
2017-07-21T06:37:53.205Z,99.90
2017-07-21T06:40:19.177Z,99.90
2017-07-21T06:42:45.126Z,99.90
2017-07-21T06:45:11.101Z,99.90
2017-07-21T06:47:37.053Z,99.90
2017-07-21T06:50:03.774Z,99.90
2017-07-21T06:52:29.709Z,99.90
2017-07-21T06:54:55.649Z,99.90
2017-07-21T06:57:21.645Z,99.90
2017-07-21T06:59:47.580Z,99.90
2017-07-21T07:02:13.530Z,99.90
2017-07-21T07:04:39.530Z,99.90
2017-07-21T07:07:06.246Z,99.90
2017-07-21T07:09:32.217Z,99.90
2017-07-21T07:11:58.210Z,99.90
2017-07-21T07:14:24.153Z,99.90
2017-07-21T07:16:50.136Z,99.90
2017-07-21T07:19:16.080Z,99.90
2017-07-21T07:21:42.033Z,99.90
2017-07-21T07:24:08.752Z,99.90
2017-07-21T07:26:34.697Z,99.90
2017-07-21T07:29:00.633Z,99.90
2017-07-21T07:31:26.622Z,99.90
2017-07-21T07:33:52.583Z,99.90
2017-07-21T07:36:18.544Z,99.90
2017-07-21T07:38:44.554Z,99.90
2017-07-21T07:41:10.542Z,99.90
2017-07-21T07:43:36.488Z,99.90
2017-07-21T07:46:02.463Z,99.90
2017-07-21T07:48:28.413Z,99.90
2017-07-21T07:50:54.380Z,99.90
2017-07-21T07:53:20.321Z,99.90
2017-07-21T07:55:46.305Z,99.90
2017-07-21T07:58:12.245Z,99.90
2017-07-21T08:00:38.197Z,99.90
2017-07-21T08:03:04.196Z,99.90
2017-07-21T08:05:30.885Z,99.90
2017-07-21T08:07:56.820Z,99.90
2017-07-21T08:10:22.789Z,99.90
2017-07-21T08:12:48.720Z,99.90
2017-07-21T08:15:14.692Z,99.90
2017-07-21T08:17:40.653Z,99.90
2017-07-21T08:20:06.754Z,99.90
2017-07-21T08:22:32.700Z,99.90
2017-07-21T08:24:58.651Z,99.90
2017-07-21T08:27:24.690Z,99.90
2017-07-21T08:29:50.690Z,99.90
2017-07-21T08:32:16.629Z,99.90
2017-07-21T08:34:42.564Z,99.90
2017-07-21T08:37:09.296Z,99.90
2017-07-21T08:39:35.232Z,99.90
2017-07-21T08:42:01.185Z,99.90
2017-07-21T08:44:27.229Z,99.90
2017-07-21T08:46:53.198Z,99.90
2017-07-21T08:49:19.185Z,99.90
2017-07-21T08:51:45.122Z,99.90
2017-07-21T08:54:11.071Z,99.90
2017-07-21T08:56:37.075Z,99.90
2017-07-21T08:59:03.013Z,99.90
2017-07-21T09:01:28.948Z,99.90
2017-07-21T09:03:54.920Z,99.90
2017-07-21T09:06:20.897Z,99.90
2017-07-21T09:08:46.877Z,99.90
2017-07-21T09:11:12.876Z,99.90
2017-07-21T09:13:38.812Z,99.90
2017-07-21T09:16:05.529Z,99.90
2017-07-21T09:18:31.472Z,99.90
2017-07-21T09:20:57.497Z,99.90
2017-07-21T09:23:23.436Z,99.90
2017-07-21T09:25:49.374Z,99.90
2017-07-21T09:28:15.344Z,99.90
2017-07-21T09:30:41.289Z,99.90
2017-07-21T09:33:07.265Z,99.90
2017-07-21T09:35:33.228Z,99.90
2017-07-21T09:37:59.981Z,99.90
2017-07-21T09:40:25.965Z,99.90
2017-07-21T09:42:52.632Z,99.90
2017-07-21T09:45:21.308Z,99.90
2017-07-21T09:47:47.297Z,99.90
2017-07-21T09:50:13.236Z,99.90
2017-07-21T09:52:39.173Z,99.90
2017-07-21T09:55:05.913Z,99.90
2017-07-21T09:57:31.878Z,99.90
2017-07-21T09:59:57.821Z,99.90
2017-07-21T10:02:24.533Z,99.90
2017-07-21T10:04:50.464Z,99.90
2017-07-21T10:07:16.438Z,99.90
2017-07-21T10:09:42.428Z,99.90
2017-07-21T10:12:08.412Z,99.90
2017-07-21T10:14:34.375Z,99.90
2017-07-21T10:17:00.361Z,99.90
2017-07-21T10:19:26.296Z,99.90
2017-07-21T10:21:52.253Z,99.90
2017-07-21T10:24:18.230Z,99.90
2017-07-21T10:26:44.205Z,99.90
2017-07-21T10:29:10.192Z,99.90
2017-07-21T10:31:36.132Z,99.90
2017-07-21T10:34:02.077Z,99.90
2017-07-21T10:36:28.813Z,99.90
2017-07-21T10:38:54.765Z,99.90
2017-07-21T10:41:20.723Z,99.90
2017-07-21T10:43:46.685Z,99.90
2017-07-21T10:46:12.620Z,99.90
2017-07-21T10:48:38.609Z,99.90
2017-07-21T10:51:04.549Z,99.90
2017-07-21T10:53:31.252Z,99.90
2017-07-21T10:55:57.241Z,99.90
2017-07-21T10:58:23.221Z,99.90
2017-07-21T11:00:49.200Z,99.90
2017-07-21T11:03:15.145Z,99.90
2017-07-21T11:05:41.130Z,99.90
2017-07-21T11:08:07.101Z,99.90
2017-07-21T11:10:33.040Z,99.90
2017-07-21T11:12:59.824Z,99.90
2017-07-21T11:15:25.820Z,99.90
2017-07-21T11:17:51.781Z,99.90
2017-07-21T11:20:17.726Z,99.90
2017-07-21T11:22:43.705Z,99.90
2017-07-21T11:25:09.649Z,99.90
2017-07-21T11:27:35.624Z,99.90
2017-07-21T11:30:01.564Z,99.90
2017-07-21T11:32:27.514Z,99.90
2017-07-21T11:34:54.270Z,99.90
2017-07-21T11:37:20.240Z,99.90
2017-07-21T11:39:46.176Z,99.90
2017-07-21T11:42:12.885Z,99.90
2017-07-21T11:44:39.600Z,99.90
2017-07-21T11:47:05.556Z,99.90
2017-07-21T11:49:31.493Z,99.90
2017-07-21T11:51:57.502Z,99.90
2017-07-21T11:54:23.461Z,99.90
2017-07-21T11:56:50.154Z,99.90
2017-07-21T11:59:16.128Z,99.90
2017-07-21T12:01:42.085Z,99.90
2017-07-21T12:04:08.773Z,99.90
2017-07-21T12:06:34.749Z,99.90
2017-07-21T12:09:00.741Z,99.90
2017-07-21T12:11:26.689Z,99.90
2017-07-21T12:13:52.668Z,99.90
2017-07-21T12:16:18.644Z,99.90
2017-07-21T12:18:44.585Z,99.90
2017-07-21T12:21:10.553Z,99.90
2017-07-21T12:23:36.525Z,99.90
2017-07-21T12:26:02.460Z,99.90
2017-07-21T12:28:28.448Z,99.90
2017-07-21T12:30:54.402Z,99.90
2017-07-21T12:33:21.090Z,99.90
2017-07-21T12:35:47.070Z,99.90
2017-07-21T12:38:13.053Z,99.90
2017-07-21T12:40:39.769Z,94.50
2017-07-21T12:43:06.452Z,91.70
2017-07-21T12:45:32.381Z,91.50
2017-07-21T12:47:58.361Z,91.50
2017-07-21T12:50:24.324Z,77.40
2017-07-21T12:52:51.053Z,73.10
2017-07-21T12:55:17.741Z,72.40
2017-07-21T12:57:43.690Z,72.20
2017-07-21T13:00:10.474Z,64.20
2017-07-21T13:02:36.441Z,63.90
2017-07-21T13:05:02.386Z,59.70
2017-07-21T13:07:28.385Z,59.70
2017-07-21T13:09:54.345Z,56.90
2017-07-21T13:12:21.069Z,58.00
2017-07-21T13:14:47.781Z,53.90
2017-07-21T13:17:13.733Z,53.60
2017-07-21T13:19:39.720Z,50.20
2017-07-21T13:22:05.680Z,52.80
2017-07-21T13:24:31.619Z,54.40
2017-07-21T13:26:58.342Z,54.60
2017-07-21T13:29:25.028Z,54.50
2017-07-21T13:31:50.970Z,54.30
2017-07-21T13:34:16.946Z,52.50
2017-07-21T13:36:42.888Z,53.40
2017-07-21T13:39:08.910Z,54.90
2017-07-21T13:41:34.844Z,55.00
2017-07-21T13:44:00.821Z,53.30
2017-07-21T13:46:26.791Z,52.60
2017-07-21T13:48:53.468Z,55.20
2017-07-21T13:51:19.449Z,55.30
2017-07-21T13:53:45.440Z,53.20
2017-07-21T13:56:11.425Z,51.50
2017-07-21T13:58:37.364Z,51.60
2017-07-21T14:01:03.333Z,50.40
2017-07-21T14:03:29.276Z,49.80
2017-07-21T14:05:55.260Z,48.40
2017-07-21T14:08:21.950Z,48.60
2017-07-21T14:10:47.900Z,48.20
2017-07-21T14:13:13.869Z,47.10
2017-07-21T14:15:39.848Z,44.80
2017-07-21T14:18:05.789Z,42.90
2017-07-21T14:20:31.725Z,43.90
2017-07-21T14:22:58.436Z,45.50
2017-07-21T14:25:25.157Z,45.20
2017-07-21T14:27:51.176Z,44.20
2017-07-21T14:30:17.361Z,42.70
2017-07-21T14:32:44.215Z,39.10
2017-07-21T14:35:12.168Z,39.00
2017-07-21T14:37:38.368Z,38.40
2017-07-21T14:40:04.328Z,38.80
2017-07-21T14:42:30.423Z,39.80
2017-07-21T14:44:56.392Z,41.60
2017-07-21T14:47:22.330Z,43.00
2017-07-21T14:49:48.313Z,44.30
2017-07-21T14:52:14.275Z,44.00
2017-07-21T14:54:40.309Z,44.60
2017-07-21T14:57:06.292Z,45.10
2017-07-21T14:59:32.233Z,44.50
2017-07-21T15:01:58.178Z,42.50
2017-07-21T15:04:24.933Z,42.20
2017-07-21T15:06:50.949Z,42.70
2017-07-21T15:09:16.893Z,44.90
2017-07-21T15:11:42.837Z,44.40
2017-07-21T15:14:09.576Z,43.60
2017-07-21T15:16:36.257Z,42.50
2017-07-21T15:19:02.952Z,41.50
2017-07-21T15:21:28.969Z,41.40
2017-07-21T15:23:54.916Z,40.10
2017-07-21T15:26:20.864Z,40.50
2017-07-21T15:28:46.850Z,40.80
2017-07-21T15:31:13.579Z,42.10
2017-07-21T15:33:40.264Z,43.00
2017-07-21T15:36:06.237Z,42.90
2017-07-21T15:38:32.177Z,42.40
2017-07-21T15:40:58.174Z,41.90
2017-07-21T15:43:24.145Z,41.90
2017-07-21T15:45:50.157Z,42.10
2017-07-21T15:48:16.156Z,41.00
2017-07-21T15:50:42.176Z,42.50
2017-07-21T15:53:08.253Z,41.70
2017-07-21T15:55:34.209Z,42.50
2017-07-21T15:58:00.211Z,43.20
2017-07-21T16:00:26.245Z,44.40
2017-07-21T16:02:56.519Z,44.20
2017-07-21T16:05:22.646Z,45.30
2017-07-21T16:07:48.631Z,44.60
2017-07-21T16:10:14.640Z,45.80
2017-07-21T16:12:40.654Z,46.60
2017-07-21T16:15:06.601Z,46.90
2017-07-21T16:17:32.553Z,46.80
2017-07-21T16:19:58.541Z,47.10
2017-07-21T16:22:24.501Z,47.40
2017-07-21T16:24:50.452Z,48.90
2017-07-21T16:27:16.412Z,48.20
2017-07-21T16:29:42.377Z,48.40
2017-07-21T16:32:08.377Z,49.10
2017-07-21T16:34:34.325Z,49.20
2017-07-21T16:37:00.261Z,49.10
2017-07-21T16:39:26.281Z,49.60
2017-07-21T16:41:52.220Z,49.20
2017-07-21T16:44:18.164Z,49.30
2017-07-21T16:46:44.157Z,49.00
2017-07-21T16:49:10.842Z,49.80
2017-07-21T16:51:36.784Z,49.80
2017-07-21T16:54:02.786Z,50.40
2017-07-21T16:56:28.725Z,50.40
2017-07-21T16:58:54.681Z,49.70
2017-07-21T17:01:20.684Z,49.50
2017-07-21T17:03:46.670Z,50.10
2017-07-21T17:06:12.611Z,49.60
2017-07-21T17:08:38.597Z,50.70
2017-07-21T17:11:04.546Z,50.10
2017-07-21T17:13:31.231Z,51.60
2017-07-21T17:15:57.201Z,51.50
2017-07-21T17:18:23.196Z,52.10
2017-07-21T17:20:49.920Z,51.70
2017-07-21T17:23:16.675Z,51.60
2017-07-21T17:25:42.641Z,51.60
2017-07-21T17:28:08.585Z,52.10
2017-07-21T17:30:34.565Z,51.60
2017-07-21T17:33:01.253Z,52.80
2017-07-21T17:35:27.248Z,52.80
2017-07-21T17:37:53.189Z,52.30
2017-07-21T17:40:19.335Z,51.90
2017-07-21T17:42:45.325Z,52.60
2017-07-21T17:45:12.045Z,55.90
2017-07-21T17:47:37.988Z,56.20
2017-07-21T17:50:03.968Z,52.70
2017-07-21T17:52:30.666Z,53.60
2017-07-21T17:54:56.608Z,53.60
2017-07-21T17:57:23.304Z,53.10
2017-07-21T17:59:49.254Z,53.00
2017-07-21T18:02:15.315Z,53.70
2017-07-21T18:04:41.262Z,54.30
2017-07-21T18:07:07.984Z,54.20
2017-07-21T18:09:33.920Z,54.20
2017-07-21T18:11:59.877Z,55.50
2017-07-21T18:14:25.848Z,55.30
2017-07-21T18:16:51.789Z,55.30
2017-07-21T18:19:17.749Z,56.20
2017-07-21T18:21:43.752Z,56.20
2017-07-21T18:24:09.688Z,58.90
2017-07-21T18:26:35.640Z,58.40
2017-07-21T18:29:02.377Z,59.40
2017-07-21T18:31:28.321Z,59.20
2017-07-21T18:33:54.261Z,62.20
2017-07-21T18:36:20.249Z,61.10
2017-07-21T18:38:46.222Z,61.50
2017-07-21T18:41:12.167Z,61.20
2017-07-21T18:43:38.120Z,64.20
2017-07-21T18:46:04.810Z,64.90
2017-07-21T18:48:30.788Z,64.80
2017-07-21T18:51:03.594Z,76.40
2017-07-21T18:53:29.559Z,71.50
2017-07-21T18:55:55.497Z,74.90
2017-07-21T18:58:21.477Z,75.60
2017-07-21T19:00:47.422Z,78.80
2017-07-21T19:03:13.396Z,78.60
2017-07-21T19:05:39.404Z,77.90
2017-07-21T19:08:05.341Z,80.90
2017-07-21T19:10:31.277Z,79.90
2017-07-21T19:12:57.245Z,83.30
2017-07-21T19:15:23.185Z,81.80
2017-07-21T19:17:49.213Z,83.40
2017-07-21T19:20:15.926Z,86.50
2017-07-21T19:22:41.950Z,86.60
2017-07-21T19:25:07.894Z,89.60
2017-07-21T19:27:33.838Z,90.70
2017-07-21T19:29:59.813Z,90.80
2017-07-21T19:32:25.792Z,91.60
2017-07-21T19:34:51.733Z,90.80
2017-07-21T19:37:17.704Z,91.50
2017-07-21T19:39:43.653Z,92.90
2017-07-21T19:42:09.625Z,92.50
2017-07-21T19:44:35.614Z,93.10
2017-07-21T19:47:01.565Z,93.00
2017-07-21T19:49:27.556Z,94.30
2017-07-21T19:51:53.549Z,94.70
2017-07-21T19:54:19.530Z,95.30
2017-07-21T19:56:45.488Z,95.60
2017-07-21T19:59:11.461Z,96.40
2017-07-21T20:01:38.193Z,98.20
2017-07-21T20:04:04.899Z,99.90
2017-07-21T20:06:30.890Z,99.90
2017-07-21T20:08:56.842Z,98.90
2017-07-21T20:11:23.573Z,99.60
2017-07-21T20:13:50.288Z,99.50
2017-07-21T20:16:17.020Z,99.80
2017-07-21T20:18:42.995Z,99.80
2017-07-21T20:21:08.968Z,99.90
2017-07-21T20:23:34.973Z,99.90
2017-07-21T20:26:00.921Z,99.90
2017-07-21T20:28:26.881Z,99.90
2017-07-21T20:30:52.906Z,99.90
2017-07-21T20:33:18.843Z,99.90
2017-07-21T20:35:44.850Z,99.90
2017-07-21T20:38:10.824Z,99.90
2017-07-21T20:40:36.809Z,99.90
2017-07-21T20:43:02.785Z,99.90
2017-07-21T20:45:28.740Z,99.90
2017-07-21T20:47:54.739Z,99.90
2017-07-21T20:50:20.692Z,99.90
2017-07-21T20:52:46.702Z,99.90
2017-07-21T20:55:12.742Z,99.90
2017-07-21T20:57:38.704Z,99.90
2017-07-21T21:00:04.652Z,99.90
2017-07-21T21:02:31.389Z,99.90
2017-07-21T21:04:58.078Z,99.90
2017-07-21T21:07:24.024Z,99.90
2017-07-21T21:09:50.750Z,99.90
2017-07-21T21:12:17.498Z,99.90
2017-07-21T21:14:43.514Z,99.90
2017-07-21T21:17:09.462Z,99.90
2017-07-21T21:19:35.449Z,99.90
2017-07-21T21:22:01.393Z,99.90
2017-07-21T21:24:27.353Z,99.90
2017-07-21T21:26:53.329Z,99.90
2017-07-21T21:29:19.280Z,99.90
2017-07-21T21:31:45.298Z,99.90
2017-07-21T21:34:11.246Z,99.90
2017-07-21T21:36:37.245Z,99.90
2017-07-21T21:39:03.242Z,99.90
2017-07-21T21:41:29.189Z,99.90
2017-07-21T21:43:55.199Z,99.90
2017-07-21T21:46:21.183Z,99.90
2017-07-21T21:48:47.185Z,99.90
2017-07-21T21:51:13.128Z,99.90
2017-07-21T21:53:39.096Z,99.90
2017-07-21T21:56:05.101Z,99.90
2017-07-21T21:58:31.092Z,99.90
2017-07-21T22:00:57.074Z,99.90
2017-07-21T22:03:23.016Z,99.90
2017-07-21T22:05:48.998Z,99.90
2017-07-21T22:08:14.992Z,99.90
2017-07-21T22:10:40.944Z,99.90
2017-07-21T22:13:06.940Z,99.90
2017-07-21T22:15:45.460Z,99.90
2017-07-21T22:18:11.412Z,99.90
2017-07-21T22:20:37.424Z,99.90
2017-07-21T22:23:03.414Z,99.90
2017-07-21T22:25:29.411Z,99.90
2017-07-21T22:27:55.357Z,99.90
2017-07-21T22:30:22.047Z,99.90
2017-07-21T22:32:48.058Z,99.90
2017-07-21T22:35:14.001Z,99.90
2017-07-21T22:37:40.718Z,99.90
2017-07-21T22:40:07.397Z,99.90
2017-07-21T22:42:33.380Z,99.90
2017-07-21T22:44:59.328Z,99.90
2017-07-21T22:47:25.270Z,99.90
2017-07-21T22:49:51.260Z,99.90
2017-07-21T22:52:17.200Z,99.90
2017-07-21T22:54:43.145Z,99.90
2017-07-21T22:57:09.128Z,99.90
2017-07-21T22:59:35.076Z,99.90
2017-07-21T23:02:01.045Z,99.90
2017-07-21T23:04:27.030Z,99.90
2017-07-21T23:06:53.750Z,99.90
2017-07-21T23:09:20.437Z,99.90
2017-07-21T23:11:46.424Z,99.90
2017-07-21T23:14:12.369Z,99.90
2017-07-21T23:16:38.317Z,99.90
2017-07-21T23:19:04.313Z,99.90
2017-07-21T23:21:31.022Z,99.90
2017-07-21T23:23:57.009Z,99.90
2017-07-21T23:26:22.996Z,99.90
2017-07-21T23:28:48.937Z,99.90
2017-07-21T23:31:14.913Z,99.90
2017-07-21T23:33:40.865Z,99.90
2017-07-21T23:36:06.838Z,99.90
2017-07-21T23:38:32.777Z,99.90
2017-07-21T23:40:58.773Z,99.90
2017-07-21T23:43:24.712Z,99.90
2017-07-21T23:45:51.392Z,99.90
2017-07-21T23:48:17.366Z,99.90
2017-07-21T23:50:43.345Z,99.90
2017-07-21T23:53:10.116Z,99.90
2017-07-21T23:55:36.056Z,99.90
2017-07-21T23:58:02.005Z,99.90
